Terminal Aerodrome Forecast
Issued by NWS

Home | Current Version | Previous Version | Text Only | Print | Product List | Glossary On
Versions: 1 2 3 4 5 6 7 8 9 10 11 12
918
FTUS46 KSTO 240523
TAFSCK
TAF
KSCK 240523Z 2406/2506 VRB05KT P6SM SKC
     FM240900 13004KT P6SM SKC
     FM242000 29009KT P6SM OVC250=

USA.gov is the U.S. government's official web portal to all federal, state and local government web resources and services.